This is the latest recevied weather packets stored in our database for station/object LZ1PDB-12. If no packets are shown the sender has not sent any weather packets the latest 10 day(s).
| Time | Temp. | Humidity | Pressure | Rain* | Wind** | Luminosity | Snow |
|---|---|---|---|---|---|---|---|
| 1777761714 | 9.44° C | 49% | 1024.4 hPa | - | - | - | - |
| 1777760814 | 9.44° C | 49% | 1024.8 hPa | - | - | - | - |
| 1777757210 | 10° C | 48% | 1025 hPa | - | - | - | - |
| 1777753608 | 10° C | 47% | 1024.9 hPa | - | - | - | - |
| 1777752708 | 10° C | 47% | 1024.8 hPa | - | - | - | - |
| 1777751808 | 10° C | 48% | 1025.1 hPa | - | - | - | - |
| 1777750008 | 10.56° C | 47% | 1024.9 hPa | - | - | - | - |
| 1777749107 | 10.56° C | 46% | 1024.8 hPa | - | - | - | - |
| 1777748204 | 10.56° C | 46% | 1024.7 hPa | - | - | - | - |
| 1777746403 | 10.56° C | 46% | 1024.7 hPa | - | - | - | - |
| 1777745503 | 11.11° C | 46% | 1024.6 hPa | - | - | - | - |
| 1777741002 | 12.22° C | 43% | 1022.9 hPa | - | - | - | - |
| 1777739201 | 12.22° C | 43% | 1022.7 hPa | - | - | - | - |
| 1777738300 | 12.78° C | 42% | 1022.7 hPa | - | - | - | - |
| 1777735600 | 13.33° C | 41% | 1022.9 hPa | - | - | - | - |
| 1777734700 | 13.33° C | 41% | 1023 hPa | - | - | - | - |
| 1777733799 | 13.89° C | 40% | 1022.9 hPa | - | - | - | - |
| 1777732899 | 13.33° C | 41% | 1023.2 hPa | - | - | - | - |
| 1777731999 | 13.89° C | 41% | 1023.3 hPa | - | - | - | - |
| 1777731099 | 13.89° C | 41% | 1023.4 hPa | - | - | - | - |
| 1777730199 | 13.33° C | 40% | 1023.5 hPa | - | - | - | - |
| 1777729299 | 13.33° C | 39% | 1023.7 hPa | - | - | - | - |
| 1777728398 | 13.89° C | 39% | 1023.6 hPa | - | - | - | - |
| 1777727498 | 13.33° C | 39% | 1023.9 hPa | - | - | - | - |
| 1777726597 | 13.33° C | 40% | 1024.1 hPa | - | - | - | - |
* Rain since midnight (hover to see other rain measurements)
** Current wind speed in m/s (hover to see current wind gust speed)